sensor_id;sensor_type;location;lat;lon;timestamp;pressure;altitude;pressure_sealevel;temperature;humidity
37238;BME280;23129;49.662;8.448;2022-11-20T00:01:37;100330.31;;;3.45;100.00
37238;BME280;23129;49.662;8.448;2022-11-20T00:04:05;100325.13;;;3.45;100.00
37238;BME280;23129;49.662;8.448;2022-11-20T00:06:34;100324.25;;;3.45;100.00
37238;BME280;23129;49.662;8.448;2022-11-20T00:09:03;100322.50;;;3.47;100.00
37238;BME280;23129;49.662;8.448;2022-11-20T00:11:33;100313.88;;;3.46;100.00
37238;BME280;23129;49.662;8.448;2022-11-20T00:14:02;100325.13;;;3.48;100.00
37238;BME280;23129;49.662;8.448;2022-11-20T00:16:32;100313.03;;;3.50;100.00
37238;BME280;23129;49.662;8.448;2022-11-20T00:19:01;100311.28;;;3.49;100.00
37238;BME280;23129;49.662;8.448;2022-11-20T00:21:30;100313.91;;;3.48;100.00
37238;BME280;23129;49.662;8.448;2022-11-20T00:23:58;100328.59;;;3.47;100.00
37238;BME280;23129;49.662;8.448;2022-11-20T00:26:28;100326.84;;;3.46;100.00
37238;BME280;23129;49.662;8.448;2022-11-20T00:29:00;100333.75;;;3.46;100.00
37238;BME280;23129;49.662;8.448;2022-11-20T00:31:30;100337.22;;;3.46;100.00
37238;BME280;23129;49.662;8.448;2022-11-20T00:34:00;100332.03;;;3.46;100.00
37238;BME280;23129;49.662;8.448;2022-11-20T00:36:31;100328.59;;;3.47;100.00
37238;BME280;23129;49.662;8.448;2022-11-20T00:39:01;100332.91;;;3.48;100.00
37238;BME280;23129;49.662;8.448;2022-11-20T00:41:30;100336.38;;;3.50;100.00
37238;BME280;23129;49.662;8.448;2022-11-20T00:43:59;100338.94;;;3.52;100.00
37238;BME280;23129;49.662;8.448;2022-11-20T00:46:28;100340.69;;;3.51;100.00
37238;BME280;23129;49.662;8.448;2022-11-20T00:48:57;100335.50;;;3.51;100.00
37238;BME280;23129;49.662;8.448;2022-11-20T00:51:27;100333.78;;;3.50;100.00
37238;BME280;23129;49.662;8.448;2022-11-20T00:53:57;100332.03;;;3.48;100.00
37238;BME280;23129;49.662;8.448;2022-11-20T00:56:27;100319.94;;;3.48;100.00
37238;BME280;23129;49.662;8.448;2022-11-20T00:58:58;100326.84;;;3.46;100.00
37238;BME280;23129;49.662;8.448;2022-11-20T01:01:28;100320.78;;;3.41;100.00
37238;BME280;23129;49.662;8.448;2022-11-20T01:03:59;100319.06;;;3.37;100.00
37238;BME280;23129;49.662;8.448;2022-11-20T01:06:30;100313.03;;;3.32;100.00
37238;BME280;23129;49.662;8.448;2022-11-20T01:09:00;100316.50;;;3.25;100.00
37238;BME280;23129;49.662;8.448;2022-11-20T01:11:32;100311.31;;;3.18;100.00
37238;BME280;23129;49.662;8.448;2022-11-20T01:14:03;100305.25;;;3.13;100.00
37238;BME280;23129;49.662;8.448;2022-11-20T01:16:36;100300.06;;;3.10;100.00
37238;BME280;23129;49.662;8.448;2022-11-20T01:19:07;100303.53;;;3.11;100.00
37238;BME280;23129;49.662;8.448;2022-11-20T01:21:38;100307.84;;;3.15;100.00
37238;BME280;23129;49.662;8.448;2022-11-20T01:24:09;100300.09;;;3.18;100.00
37238;BME280;23129;49.662;8.448;2022-11-20T01:26:41;100306.13;;;3.18;100.00
37238;BME280;23129;49.662;8.448;2022-11-20T01:29:13;100302.66;;;3.19;100.00
37238;BME280;23129;49.662;8.448;2022-11-20T01:31:44;100304.41;;;3.17;100.00
37238;BME280;23129;49.662;8.448;2022-11-20T01:34:14;100308.69;;;3.17;100.00
37238;BME280;23129;49.662;8.448;2022-11-20T01:36:44;100316.50;;;3.15;100.00
37238;BME280;23129;49.662;8.448;2022-11-20T01:39:15;100313.03;;;3.16;100.00
37238;BME280;23129;49.662;8.448;2022-11-20T01:41:46;100311.31;;;3.15;100.00
37238;BME280;23129;49.662;8.448;2022-11-20T01:44:55;100312.16;;;3.13;100.00
37238;BME280;23129;49.662;8.448;2022-11-20T01:47:37;100313.88;;;3.14;100.00
37238;BME280;23129;49.662;8.448;2022-11-20T01:50:14;100308.69;;;3.14;100.00
37238;BME280;23129;49.662;8.448;2022-11-20T01:52:47;100313.88;;;3.17;100.00
37238;BME280;23129;49.662;8.448;2022-11-20T01:55:21;100312.19;;;3.17;100.00
37238;BME280;23129;49.662;8.448;2022-11-20T01:57:50;100310.44;;;3.16;100.00
37238;BME280;23129;49.662;8.448;2022-11-20T02:00:20;100302.66;;;3.16;100.00
37238;BME280;23129;49.662;8.448;2022-11-20T02:02:54;100306.13;;;3.15;100.00
37238;BME280;23129;49.662;8.448;2022-11-20T02:05:31;100302.66;;;3.16;100.00
37238;BME280;23129;49.662;8.448;2022-11-20T02:08:03;100300.94;;;3.17;100.00
37238;BME280;23129;49.662;8.448;2022-11-20T02:10:33;100302.66;;;3.16;100.00
37238;BME280;23129;49.662;8.448;2022-11-20T02:13:02;100293.16;;;3.15;100.00
37238;BME280;23129;49.662;8.448;2022-11-20T02:15:48;100300.09;;;3.18;100.00
37238;BME280;23129;49.662;8.448;2022-11-20T02:18:20;100299.22;;;3.19;100.00
37238;BME280;23129;49.662;8.448;2022-11-20T02:20:54;100297.50;;;3.21;100.00
37238;BME280;23129;49.662;8.448;2022-11-20T02:23:24;100295.75;;;3.20;100.00
37238;BME280;23129;49.662;8.448;2022-11-20T02:25:57;100297.47;;;3.19;100.00
37238;BME280;23129;49.662;8.448;2022-11-20T02:28:26;100292.28;;;3.19;100.00
37238;BME280;23129;49.662;8.448;2022-11-20T02:30:55;100292.28;;;3.19;100.00
37238;BME280;23129;49.662;8.448;2022-11-20T02:33:24;100288.84;;;3.20;100.00
37238;BME280;23129;49.662;8.448;2022-11-20T02:35:52;100288.84;;;3.20;100.00
37238;BME280;23129;49.662;8.448;2022-11-20T02:38:21;100288.84;;;3.20;100.00
37238;BME280;23129;49.662;8.448;2022-11-20T02:40:49;100292.28;;;3.19;100.00
37238;BME280;23129;49.662;8.448;2022-11-20T02:43:23;100286.25;;;3.19;100.00
37238;BME280;23129;49.662;8.448;2022-11-20T02:45:51;100285.41;;;3.18;100.00
37238;BME280;23129;49.662;8.448;2022-11-20T02:48:20;100275.03;;;3.22;100.00
37238;BME280;23129;49.662;8.448;2022-11-20T02:50:51;100280.22;;;3.22;100.00
37238;BME280;23129;49.662;8.448;2022-11-20T02:53:20;100281.94;;;3.19;100.00
37238;BME280;23129;49.662;8.448;2022-11-20T02:55:48;100280.22;;;3.22;100.00
37238;BME280;23129;49.662;8.448;2022-11-20T02:58:17;100269.84;;;3.22;100.00
37238;BME280;23129;49.662;8.448;2022-11-20T03:00:47;100277.59;;;3.20;100.00
37238;BME280;23129;49.662;8.448;2022-11-20T03:03:15;100288.84;;;3.20;100.00
37238;BME280;23129;49.662;8.448;2022-11-20T03:05:44;100281.09;;;3.20;100.00
37238;BME280;23129;49.662;8.448;2022-11-20T03:08:12;100287.13;;;3.21;100.00
37238;BME280;23129;49.662;8.448;2022-11-20T03:10:41;100279.34;;;3.21;100.00
37238;BME280;23129;49.662;8.448;2022-11-20T03:13:09;100269.84;;;3.25;100.00
37238;BME280;23129;49.662;8.448;2022-11-20T03:15:38;100271.56;;;3.26;100.00
37238;BME280;23129;49.662;8.448;2022-11-20T03:18:08;100281.06;;;3.27;100.00
37238;BME280;23129;49.662;8.448;2022-11-20T03:20:36;100281.91;;;3.29;100.00
37238;BME280;23129;49.662;8.448;2022-11-20T03:23:05;100280.19;;;3.31;100.00
37238;BME280;23129;49.662;8.448;2022-11-20T03:25:33;100280.19;;;3.31;100.00
37238;BME280;23129;49.662;8.448;2022-11-20T03:28:02;100279.31;;;3.32;100.00
37238;BME280;23129;49.662;8.448;2022-11-20T03:30:31;100286.25;;;3.30;100.00
37238;BME280;23129;49.662;8.448;2022-11-20T03:32:59;100281.06;;;3.30;100.00
37238;BME280;23129;49.662;8.448;2022-11-20T03:35:29;100286.25;;;3.28;100.00
37238;BME280;23129;49.662;8.448;2022-11-20T03:37:58;100281.06;;;3.28;100.00
37238;BME280;23129;49.662;8.448;2022-11-20T03:40:26;100287.09;;;3.29;100.00
37238;BME280;23129;49.662;8.448;2022-11-20T03:42:54;100287.13;;;3.27;100.00
37238;BME280;23129;49.662;8.448;2022-11-20T03:45:23;100287.09;;;3.26;100.00
37238;BME280;23129;49.662;8.448;2022-11-20T03:47:51;100285.38;;;3.25;100.00
37238;BME280;23129;49.662;8.448;2022-11-20T03:50:20;100282.81;;;3.26;100.00
37238;BME280;23129;49.662;8.448;2022-11-20T03:52:49;100275.03;;;3.28;100.00
37238;BME280;23129;49.662;8.448;2022-11-20T03:55:18;100285.38;;;3.28;100.00
37238;BME280;23129;49.662;8.448;2022-11-20T03:57:46;100275.91;;;3.30;100.00
37238;BME280;23129;49.662;8.448;2022-11-20T04:00:15;100272.41;;;3.31;100.00
37238;BME280;23129;49.662;8.448;2022-11-20T04:02:44;100275.03;;;3.32;100.00
37238;BME280;23129;49.662;8.448;2022-11-20T04:05:13;100281.91;;;3.35;100.00
37238;BME280;23129;49.662;8.448;2022-11-20T04:07:41;100272.44;;;3.35;100.00
37238;BME280;23129;49.662;8.448;2022-11-20T04:10:11;100264.66;;;3.35;100.00
37238;BME280;23129;49.662;8.448;2022-11-20T04:12:40;100255.13;;;3.37;100.00
37238;BME280;23129;49.662;8.448;2022-11-20T04:15:09;100257.72;;;3.39;100.00
37238;BME280;23129;49.662;8.448;2022-11-20T04:17:37;100255.97;;;3.41;100.00
37238;BME280;23129;49.662;8.448;2022-11-20T04:20:07;100256.00;;;3.42;100.00
37238;BME280;23129;49.662;8.448;2022-11-20T04:22:36;100253.41;;;3.44;100.00
37238;BME280;23129;49.662;8.448;2022-11-20T04:25:05;100253.41;;;3.46;100.00
37238;BME280;23129;49.662;8.448;2022-11-20T04:27:35;100254.25;;;3.46;100.00
37238;BME280;23129;49.662;8.448;2022-11-20T04:30:04;100247.34;;;3.47;100.00
37238;BME280;23129;49.662;8.448;2022-11-20T04:32:32;100236.13;;;3.48;100.00
37238;BME280;23129;49.662;8.448;2022-11-20T04:35:01;100256.00;;;3.47;100.00
37238;BME280;23129;49.662;8.448;2022-11-20T04:37:30;100253.41;;;3.46;100.00
37238;BME280;23129;49.662;8.448;2022-11-20T04:39:58;100256.00;;;3.47;100.00
37238;BME280;23129;49.662;8.448;2022-11-20T04:42:26;100255.13;;;3.48;100.00
37238;BME280;23129;49.662;8.448;2022-11-20T04:44:59;100250.81;;;3.47;100.00
37238;BME280;23129;49.662;8.448;2022-11-20T04:47:27;100249.94;;;3.48;100.00
37238;BME280;23129;49.662;8.448;2022-11-20T04:49:56;100248.22;;;3.50;100.00
37238;BME280;23129;49.662;8.448;2022-11-20T04:52:25;100257.72;;;3.51;100.00
37238;BME280;23129;49.662;8.448;2022-11-20T04:54:54;100249.94;;;3.51;100.00
37238;BME280;23129;49.662;8.448;2022-11-20T04:57:22;100252.50;;;3.53;100.00
37238;BME280;23129;49.662;8.448;2022-11-20T04:59:51;100246.47;;;3.54;100.00
37238;BME280;23129;49.662;8.448;2022-11-20T05:02:21;100247.31;;;3.54;100.00
37238;BME280;23129;49.662;8.448;2022-11-20T05:04:49;100250.78;;;3.56;100.00
37238;BME280;23129;49.662;8.448;2022-11-20T05:07:18;100243.00;;;3.56;100.00
37238;BME280;23129;49.662;8.448;2022-11-20T05:09:47;100240.41;;;3.56;100.00
37238;BME280;23129;49.662;8.448;2022-11-20T05:12:15;100235.22;;;3.58;100.00
37238;BME280;23129;49.662;8.448;2022-11-20T05:14:44;100240.41;;;3.56;100.00
37238;BME280;23129;49.662;8.448;2022-11-20T05:17:12;100243.84;;;3.58;100.00
37238;BME280;23129;49.662;8.448;2022-11-20T05:19:42;100232.63;;;3.58;100.00
37238;BME280;23129;49.662;8.448;2022-11-20T05:22:14;100226.56;;;3.57;100.00
37238;BME280;23129;49.662;8.448;2022-11-20T05:24:43;100233.47;;;3.58;100.00
37238;BME280;23129;49.662;8.448;2022-11-20T05:27:11;100236.06;;;3.58;100.00
37238;BME280;23129;49.662;8.448;2022-11-20T05:29:40;100234.34;;;3.57;100.00
37238;BME280;23129;49.662;8.448;2022-11-20T05:32:08;100233.47;;;3.58;100.00
37238;BME280;23129;49.662;8.448;2022-11-20T05:34:37;100236.94;;;3.60;100.00
37238;BME280;23129;49.662;8.448;2022-11-20T05:37:07;100233.47;;;3.61;100.00
37238;BME280;23129;49.662;8.448;2022-11-20T05:39:35;100235.22;;;3.62;100.00
37238;BME280;23129;49.662;8.448;2022-11-20T05:42:04;100234.34;;;3.63;100.00
37238;BME280;23129;49.662;8.448;2022-11-20T05:44:50;100231.75;;;3.63;100.00
37238;BME280;23129;49.662;8.448;2022-11-20T05:47:18;100234.34;;;3.65;100.00
37238;BME280;23129;49.662;8.448;2022-11-20T05:49:47;100235.19;;;3.65;100.00
37238;BME280;23129;49.662;8.448;2022-11-20T05:52:16;100229.13;;;3.66;100.00
37238;BME280;23129;49.662;8.448;2022-11-20T05:54:45;100219.66;;;3.65;100.00
37238;BME280;23129;49.662;8.448;2022-11-20T05:57:14;100218.75;;;3.66;100.00
37238;BME280;23129;49.662;8.448;2022-11-20T05:59:42;100218.78;;;3.68;100.00
37238;BME280;23129;49.662;8.448;2022-11-20T06:02:11;100224.81;;;3.69;100.00
37238;BME280;23129;49.662;8.448;2022-11-20T06:04:39;100225.69;;;3.69;100.00
37238;BME280;23129;49.662;8.448;2022-11-20T06:07:08;100226.53;;;3.70;100.00
37238;BME280;23129;49.662;8.448;2022-11-20T06:09:38;100228.25;;;3.67;100.00
37238;BME280;23129;49.662;8.448;2022-11-20T06:12:07;100224.84;;;3.65;100.00
37238;BME280;23129;49.662;8.448;2022-11-20T06:14:35;100219.66;;;3.65;100.00
37238;BME280;23129;49.662;8.448;2022-11-20T06:17:04;100222.22;;;3.65;100.00
37238;BME280;23129;49.662;8.448;2022-11-20T06:19:32;100227.41;;;3.65;100.00
37238;BME280;23129;49.662;8.448;2022-11-20T06:22:01;100235.19;;;3.65;100.00
37238;BME280;23129;49.662;8.448;2022-11-20T06:24:29;100233.44;;;3.67;100.00
37238;BME280;23129;49.662;8.448;2022-11-20T06:26:59;100219.63;;;3.69;100.00
37238;BME280;23129;49.662;8.448;2022-11-20T06:29:27;100226.53;;;3.70;100.00
37238;BME280;23129;49.662;8.448;2022-11-20T06:32:00;100231.72;;;3.70;100.00
37238;BME280;23129;49.662;8.448;2022-11-20T06:34:28;100223.94;;;3.70;100.00
37238;BME280;23129;49.662;8.448;2022-11-20T06:36:57;100225.66;;;3.71;100.00
37238;BME280;23129;49.662;8.448;2022-11-20T06:39:25;100219.63;;;3.72;100.00
37238;BME280;23129;49.662;8.448;2022-11-20T06:41:54;100221.34;;;3.73;100.00
37238;BME280;23129;49.662;8.448;2022-11-20T06:44:26;100217.88;;;3.72;100.00
37238;BME280;23129;49.662;8.448;2022-11-20T06:46:55;100217.84;;;3.74;100.00
37238;BME280;23129;49.662;8.448;2022-11-20T06:49:23;100218.75;;;3.74;100.00
37238;BME280;23129;49.662;8.448;2022-11-20T06:51:52;100228.22;;;3.77;100.00
37238;BME280;23129;49.662;8.448;2022-11-20T06:54:21;100219.59;;;3.78;100.00
37238;BME280;23129;49.662;8.448;2022-11-20T06:56:49;100214.41;;;3.78;100.00
37238;BME280;23129;49.662;8.448;2022-11-20T06:59:18;100209.22;;;3.78;100.00
37238;BME280;23129;49.662;8.448;2022-11-20T07:01:48;100214.41;;;3.78;100.00
37238;BME280;23129;49.662;8.448;2022-11-20T07:04:16;100218.75;;;3.77;100.00
37238;BME280;23129;49.662;8.448;2022-11-20T07:06:45;100223.94;;;3.77;100.00
37238;BME280;23129;49.662;8.448;2022-11-20T07:09:14;100231.69;;;3.79;100.00
37238;BME280;23129;49.662;8.448;2022-11-20T07:11:43;100226.50;;;3.80;100.00
37238;BME280;23129;49.662;8.448;2022-11-20T07:14:11;100223.88;;;3.82;100.00
37238;BME280;23129;49.662;8.448;2022-11-20T07:16:40;100234.28;;;3.83;100.00
37238;BME280;23129;49.662;8.448;2022-11-20T07:19:10;100231.66;;;3.85;100.00
37238;BME280;23129;49.662;8.448;2022-11-20T07:21:39;100235.13;;;3.87;100.00
37238;BME280;23129;49.662;8.448;2022-11-20T07:24:07;100229.91;;;3.90;100.00
37238;BME280;23129;49.662;8.448;2022-11-20T07:26:35;100235.09;;;3.93;100.00
37238;BME280;23129;49.662;8.448;2022-11-20T07:29:04;100233.38;;;3.95;100.00
37238;BME280;23129;49.662;8.448;2022-11-20T07:31:33;100235.94;;;3.97;100.00
37238;BME280;23129;49.662;8.448;2022-11-20T07:34:01;100241.13;;;3.98;100.00
37238;BME280;23129;49.662;8.448;2022-11-20T07:36:31;100240.25;;;3.99;100.00
37238;BME280;23129;49.662;8.448;2022-11-20T07:39:00;100247.16;;;4.00;100.00
37238;BME280;23129;49.662;8.448;2022-11-20T07:41:28;100242.84;;;4.02;100.00
37238;BME280;23129;49.662;8.448;2022-11-20T07:43:57;100249.75;;;4.05;100.00
37238;BME280;23129;49.662;8.448;2022-11-20T07:46:25;100248.88;;;4.07;100.00
37238;BME280;23129;49.662;8.448;2022-11-20T07:48:54;100247.13;;;4.09;100.00
37238;BME280;23129;49.662;8.448;2022-11-20T07:51:22;100246.28;;;4.10;100.00
37238;BME280;23129;49.662;8.448;2022-11-20T07:53:52;100249.72;;;4.11;100.00
37238;BME280;23129;49.662;8.448;2022-11-20T07:56:21;100252.28;;;4.12;100.00
37238;BME280;23129;49.662;8.448;2022-11-20T07:58:49;100258.34;;;4.15;100.00
37238;BME280;23129;49.662;8.448;2022-11-20T08:01:18;100271.34;;;4.16;100.00
37238;BME280;23129;49.662;8.448;2022-11-20T08:03:46;100267.00;;;4.17;100.00
37238;BME280;23129;49.662;8.448;2022-11-20T08:06:14;100276.53;;;4.15;100.00
37238;BME280;23129;49.662;8.448;2022-11-20T08:08:43;100279.97;;;4.17;100.00
37238;BME280;23129;49.662;8.448;2022-11-20T08:11:12;100279.97;;;4.17;100.00
37238;BME280;23129;49.662;8.448;2022-11-20T08:13:58;100266.13;;;4.18;100.00
37238;BME280;23129;49.662;8.448;2022-11-20T08:16:45;100270.47;;;4.17;100.00
37238;BME280;23129;49.662;8.448;2022-11-20T08:19:16;100278.22;;;4.19;100.00
37238;BME280;23129;49.662;8.448;2022-11-20T08:21:46;100276.50;;;4.21;100.00
37238;BME280;23129;49.662;8.448;2022-11-20T08:24:14;100283.41;;;4.25;100.00
37238;BME280;23129;49.662;8.448;2022-11-20T08:26:44;100281.66;;;4.27;100.00
37238;BME280;23129;49.662;8.448;2022-11-20T08:29:13;100285.09;;;4.29;100.00
37238;BME280;23129;49.662;8.448;2022-11-20T08:31:41;100283.38;;;4.31;100.00
37238;BME280;23129;49.662;8.448;2022-11-20T08:34:09;100287.69;;;4.32;100.00
37238;BME280;23129;49.662;8.448;2022-11-20T08:36:45;100281.59;;;4.36;100.00
37238;BME280;23129;49.662;8.448;2022-11-20T08:39:14;100291.97;;;4.39;100.00
37238;BME280;23129;49.662;8.448;2022-11-20T08:41:44;100288.50;;;4.42;100.00
37238;BME280;23129;49.662;8.448;2022-11-20T08:44:12;100291.09;;;4.43;100.00
37238;BME280;23129;49.662;8.448;2022-11-20T08:46:42;100291.09;;;4.45;100.00
37238;BME280;23129;49.662;8.448;2022-11-20T08:49:13;100302.31;;;4.45;100.00
37238;BME280;23129;49.662;8.448;2022-11-20T08:51:42;100298.00;;;4.43;100.00
37238;BME280;23129;49.662;8.448;2022-11-20T08:54:10;100305.81;;;4.41;100.00
37238;BME280;23129;49.662;8.448;2022-11-20T08:56:39;100307.56;;;4.41;100.00
37238;BME280;23129;49.662;8.448;2022-11-20T08:59:08;100304.09;;;4.40;100.00
37238;BME280;23129;49.662;8.448;2022-11-20T09:01:57;100302.34;;;4.42;100.00
37238;BME280;23129;49.662;8.448;2022-11-20T09:04:25;100311.00;;;4.44;100.00
37238;BME280;23129;49.662;8.448;2022-11-20T09:06:53;100312.72;;;4.45;100.00
37238;BME280;23129;49.662;8.448;2022-11-20T09:09:22;100310.09;;;4.48;100.00
37238;BME280;23129;49.662;8.448;2022-11-20T09:11:51;100304.06;;;4.49;100.00
37238;BME280;23129;49.662;8.448;2022-11-20T09:14:21;100309.22;;;4.52;100.00
37238;BME280;23129;49.662;8.448;2022-11-20T09:16:51;100304.00;;;4.54;100.00
37238;BME280;23129;49.662;8.448;2022-11-20T09:19:20;100304.88;;;4.56;100.00
37238;BME280;23129;49.662;8.448;2022-11-20T09:22:04;100295.34;;;4.56;100.00
37238;BME280;23129;49.662;8.448;2022-11-20T09:24:32;100300.53;;;4.60;100.00
37238;BME280;23129;49.662;8.448;2022-11-20T09:27:04;100297.91;;;4.63;100.00
37238;BME280;23129;49.662;8.448;2022-11-20T09:29:34;100295.28;;;4.66;100.00
37238;BME280;23129;49.662;8.448;2022-11-20T09:32:03;100303.94;;;4.68;100.00
37238;BME280;23129;49.662;8.448;2022-11-20T09:34:32;100306.53;;;4.68;100.00
37238;BME280;23129;49.662;8.448;2022-11-20T09:37:00;100314.31;;;4.71;100.00
37238;BME280;23129;49.662;8.448;2022-11-20T09:39:34;100321.22;;;4.72;100.00
37238;BME280;23129;49.662;8.448;2022-11-20T09:42:30;100309.97;;;4.74;100.00
37238;BME280;23129;49.662;8.448;2022-11-20T09:45:21;100310.78;;;4.78;100.00
37238;BME280;23129;49.662;8.448;2022-11-20T09:48:15;100328.97;;;4.81;100.00
37238;BME280;23129;49.662;8.448;2022-11-20T09:50:51;100311.63;;;4.83;100.00
37238;BME280;23129;49.662;8.448;2022-11-20T09:53:30;100312.47;;;4.88;100.00
37238;BME280;23129;49.662;8.448;2022-11-20T09:56:04;100302.91;;;4.90;100.00
37238;BME280;23129;49.662;8.448;2022-11-20T09:58:38;100322.00;;;4.89;100.00
37238;BME280;23129;49.662;8.448;2022-11-20T10:01:14;100313.34;;;4.89;100.00
37238;BME280;23129;49.662;8.448;2022-11-20T10:03:50;100314.22;;;4.83;100.00
37238;BME280;23129;49.662;8.448;2022-11-20T10:06:28;100302.13;;;4.82;100.00
37238;BME280;23129;49.662;8.448;2022-11-20T10:09:06;100300.38;;;4.81;100.00
37238;BME280;23129;49.662;8.448;2022-11-20T10:11:48;100309.03;;;4.83;100.00
37238;BME280;23129;49.662;8.448;2022-11-20T10:14:31;100300.34;;;4.87;100.00
37238;BME280;23129;49.662;8.448;2022-11-20T10:17:13;100291.69;;;4.88;100.00
37238;BME280;23129;49.662;8.448;2022-11-20T10:19:58;100293.41;;;4.89;100.00
37238;BME280;23129;49.662;8.448;2022-11-20T10:22:45;100284.75;;;4.87;100.00
37238;BME280;23129;49.662;8.448;2022-11-20T10:25:18;100279.56;;;4.84;100.00
37238;BME280;23129;49.662;8.448;2022-11-20T10:28:18;100276.16;;;4.79;100.00
37238;BME280;23129;49.662;8.448;2022-11-20T10:30:59;100290.91;;;4.77;100.00
37238;BME280;23129;49.662;8.448;2022-11-20T10:33:38;100274.41;;;4.78;100.00
37238;BME280;23129;49.662;8.448;2022-11-20T10:36:33;100284.84;;;4.75;100.00
37238;BME280;23129;49.662;8.448;2022-11-20T10:39:18;100299.59;;;4.71;100.00
37238;BME280;23129;49.662;8.448;2022-11-20T10:41:55;100290.03;;;4.75;100.00
37238;BME280;23129;49.662;8.448;2022-11-20T10:44:28;100289.19;;;4.73;100.00
37238;BME280;23129;49.662;8.448;2022-11-20T10:47:21;100290.06;;;4.72;100.00
37238;BME280;23129;49.662;8.448;2022-11-20T10:49:53;100280.50;;;4.75;100.00
37238;BME280;23129;49.662;8.448;2022-11-20T10:52:33;100278.72;;;4.80;100.00
37238;BME280;23129;49.662;8.448;2022-11-20T10:55:16;100276.13;;;4.85;100.00
37238;BME280;23129;49.662;8.448;2022-11-20T10:57:57;100271.72;;;4.93;100.00
37238;BME280;23129;49.662;8.448;2022-11-20T11:00:31;100277.75;;;5.00;100.00
37238;BME280;23129;49.662;8.448;2022-11-20T11:02:59;100279.44;;;5.06;100.00
37238;BME280;23129;49.662;8.448;2022-11-20T11:05:39;100263.78;;;5.12;100.00
37238;BME280;23129;49.662;8.448;2022-11-20T11:08:14;100255.03;;;5.19;100.00
37238;BME280;23129;49.662;8.448;2022-11-20T11:10:46;100263.69;;;5.24;100.00
37238;BME280;23129;49.662;8.448;2022-11-20T11:13:21;100262.75;;;5.28;100.00
37238;BME280;23129;49.662;8.448;2022-11-20T11:15:51;100261.84;;;5.32;100.00
37238;BME280;23129;49.662;8.448;2022-11-20T11:18:26;100256.63;;;5.35;100.00
37238;BME280;23129;49.662;8.448;2022-11-20T11:21:01;100254.00;;;5.37;100.00
37238;BME280;23129;49.662;8.448;2022-11-20T11:23:33;100247.97;;;5.36;100.00
37238;BME280;23129;49.662;8.448;2022-11-20T11:26:06;100235.75;;;5.41;100.00
37238;BME280;23129;49.662;8.448;2022-11-20T11:28:54;100230.47;;;5.51;100.00
37238;BME280;23129;49.662;8.448;2022-11-20T11:31:29;100227.75;;;5.63;100.00
37238;BME280;23129;49.662;8.448;2022-11-20T11:34:05;100228.50;;;5.72;100.00
37238;BME280;23129;49.662;8.448;2022-11-20T11:36:35;100221.44;;;5.82;100.00
37238;BME280;23129;49.662;8.448;2022-11-20T11:39:10;100223.94;;;5.90;100.00
37238;BME280;23129;49.662;8.448;2022-11-20T11:41:41;100224.72;;;6.00;100.00
37238;BME280;23129;49.662;8.448;2022-11-20T11:44:18;100214.22;;;6.06;100.00
37238;BME280;23129;49.662;8.448;2022-11-20T11:47:11;100209.84;;;6.09;100.00
37238;BME280;23129;49.662;8.448;2022-11-20T11:49:40;100213.25;;;6.13;100.00
37238;BME280;23129;49.662;8.448;2022-11-20T11:52:14;100221.03;;;6.16;100.00
37238;BME280;23129;49.662;8.448;2022-11-20T11:54:50;100212.31;;;6.20;100.00
37238;BME280;23129;49.662;8.448;2022-11-20T11:57:37;100210.50;;;6.25;100.00
37238;BME280;23129;49.662;8.448;2022-11-20T12:00:11;100207.00;;;6.26;100.00
37238;BME280;23129;49.662;8.448;2022-11-20T12:02:56;100213.16;;;6.19;100.00
37238;BME280;23129;49.662;8.448;2022-11-20T12:05:27;100201.13;;;6.12;100.00
37238;BME280;23129;49.662;8.448;2022-11-20T12:08:02;100202.91;;;6.08;100.00
37238;BME280;23129;49.662;8.448;2022-11-20T12:10:45;100199.47;;;6.06;100.00
37238;BME280;23129;49.662;8.448;2022-11-20T12:13:32;100203.81;;;6.06;100.00
37238;BME280;23129;49.662;8.448;2022-11-20T12:16:04;100194.25;;;6.06;100.00
37238;BME280;23129;49.662;8.448;2022-11-20T12:18:33;100192.53;;;6.05;100.00
37238;BME280;23129;49.662;8.448;2022-11-20T12:21:20;100193.44;;;6.03;100.00
37238;BME280;23129;49.662;8.448;2022-11-20T12:24:06;100198.66;;;6.04;100.00
37238;BME280;23129;49.662;8.448;2022-11-20T12:26:52;100196.84;;;6.08;100.00
37238;BME280;23129;49.662;8.448;2022-11-20T12:29:36;100191.56;;;6.14;100.00
37238;BME280;23129;49.662;8.448;2022-11-20T12:35:44;100182.63;;;6.30;100.00
37238;BME280;23129;49.662;8.448;2022-11-20T12:38:45;100175.56;;;6.38;100.00
37238;BME280;23129;49.662;8.448;2022-11-20T12:41:27;100175.47;;;6.45;100.00
37238;BME280;23129;49.662;8.448;2022-11-20T12:44:43;100173.66;;;6.50;100.00
37238;BME280;23129;49.662;8.448;2022-11-20T12:47:36;100162.34;;;6.51;100.00
37238;BME280;23129;49.662;8.448;2022-11-20T12:50:14;100170.06;;;6.57;100.00
37238;BME280;23129;49.662;8.448;2022-11-20T12:52:49;100169.97;;;6.63;100.00
37238;BME280;23129;49.662;8.448;2022-11-20T12:55:45;100162.06;;;6.69;100.00
37238;BME280;23129;49.662;8.448;2022-11-20T12:58:24;100163.69;;;6.75;100.00
37238;BME280;23129;49.662;8.448;2022-11-20T13:00:58;100164.56;;;6.75;100.00
37238;BME280;23129;49.662;8.448;2022-11-20T13:03:42;100155.94;;;6.73;100.00
37238;BME280;23129;49.662;8.448;2022-11-20T13:06:17;100148.13;;;6.72;100.00
37238;BME280;23129;49.662;8.448;2022-11-20T13:08:52;100155.94;;;6.73;100.00
37238;BME280;23129;49.662;8.448;2022-11-20T13:11:27;100149.78;;;6.76;100.00
37238;BME280;23129;49.662;8.448;2022-11-20T13:14:24;100142.78;;;6.79;100.00
37238;BME280;23129;49.662;8.448;2022-11-20T13:16:59;100134.88;;;6.85;100.00
37238;BME280;23129;49.662;8.448;2022-11-20T13:19:32;100131.28;;;6.90;100.00
37238;BME280;23129;49.662;8.448;2022-11-20T13:22:02;100138.16;;;6.94;100.00